createdAt,value
2018-06-30T00:00:54.682Z,15.03
2018-06-30T00:01:54.707Z,14.92
2018-06-30T00:02:54.727Z,14.86
2018-06-30T00:03:54.747Z,14.91
2018-06-30T00:05:09.435Z,14.84
2018-06-30T00:05:54.536Z,14.89
2018-06-30T00:06:54.817Z,14.88
2018-06-30T00:07:54.839Z,14.89
2018-06-30T00:08:54.859Z,14.92
2018-06-30T00:09:54.885Z,14.8
2018-06-30T00:10:54.908Z,14.8
2018-06-30T00:11:54.929Z,14.84
2018-06-30T00:12:54.955Z,14.81
2018-06-30T00:13:54.974Z,14.73
2018-06-30T00:14:54.994Z,14.84
2018-06-30T00:15:55.022Z,14.77
2018-06-30T00:16:55.041Z,14.77
2018-06-30T00:17:55.065Z,14.75
2018-06-30T00:18:54.572Z,14.81
2018-06-30T00:19:55.110Z,14.84
2018-06-30T00:21:09.794Z,14.62
2018-06-30T00:22:55.231Z,14.6
2018-06-30T00:23:55.203Z,14.65
2018-06-30T00:24:55.228Z,14.64
2018-06-30T00:25:55.252Z,14.69
2018-06-30T00:26:55.013Z,14.69
2018-06-30T00:27:54.776Z,14.7
2018-06-30T00:29:09.985Z,14.68
2018-06-30T00:29:55.337Z,14.68
2018-06-30T00:30:55.364Z,14.6
2018-06-30T00:32:10.042Z,14.51
2018-06-30T00:32:55.146Z,14.6
2018-06-30T00:33:55.427Z,14.55
2018-06-30T00:34:55.449Z,14.64
2018-06-30T00:35:55.216Z,14.6
2018-06-30T00:37:10.164Z,14.58
2018-06-30T00:38:55.284Z,14.51
2018-06-30T00:39:55.558Z,14.58
2018-06-30T00:40:55.586Z,14.61
2018-06-30T00:41:55.611Z,14.52
2018-06-30T00:42:55.729Z,14.52
2018-06-30T00:43:55.655Z,14.43
2018-06-30T00:44:55.160Z,14.47
2018-06-30T00:45:55.702Z,14.51
2018-06-30T00:46:55.717Z,14.5
2018-06-30T00:47:55.747Z,14.47
2018-06-30T00:48:55.768Z,14.45
2018-06-30T00:49:55.790Z,14.46
2018-06-30T00:50:55.811Z,14.37
2018-06-30T00:52:10.496Z,14.43
2018-06-30T00:52:55.343Z,14.36
2018-06-30T00:53:55.880Z,14.43
2018-06-30T00:54:55.644Z,14.36
2018-06-30T00:56:10.591Z,14.32
2018-06-30T00:57:10.612Z,14.33
2018-06-30T00:57:55.970Z,14.39
2018-06-30T00:58:55.997Z,14.35
2018-06-30T00:59:56.013Z,14.28
2018-06-30T01:00:56.036Z,14.32
2018-06-30T01:02:10.719Z,14.29
2018-06-30T01:02:56.087Z,14.18
2018-06-30T01:03:56.131Z,14.14
2018-06-30T01:04:56.126Z,14.22
2018-06-30T01:05:55.890Z,14.15
2018-06-30T01:06:56.173Z,14.2
2018-06-30T01:07:55.936Z,14.15
2018-06-30T01:08:56.223Z,14.15
2018-06-30T01:09:56.238Z,14.15
2018-06-30T01:10:56.265Z,14.1
2018-06-30T01:12:56.305Z,14.12
2018-06-30T01:13:56.326Z,14.14
2018-06-30T01:14:56.349Z,14
2018-06-30T01:15:56.373Z,14.12
2018-06-30T01:17:11.055Z,14.14
2018-06-30T01:18:11.076Z,14.06
2018-06-30T01:18:56.218Z,14
2018-06-30T01:19:56.465Z,13.96
2018-06-30T01:20:56.226Z,13.95
2018-06-30T01:21:56.249Z,13.96
2018-06-30T01:22:56.529Z,13.89
2018-06-30T01:24:11.216Z,13.96
2018-06-30T01:24:56.573Z,13.89
2018-06-30T01:25:56.594Z,13.91
2018-06-30T01:27:56.639Z,13.82
2018-06-30T01:28:56.667Z,13.85
2018-06-30T01:30:11.348Z,13.77
2018-06-30T01:30:56.707Z,13.75
2018-06-30T01:32:56.748Z,13.75
2018-06-30T01:34:11.431Z,13.71
2018-06-30T01:34:56.844Z,13.67
2018-06-30T01:35:56.558Z,13.67
2018-06-30T01:36:56.839Z,13.69
2018-06-30T01:37:56.859Z,13.62
2018-06-30T01:38:56.881Z,13.64
2018-06-30T01:40:11.566Z,13.64
2018-06-30T01:40:56.667Z,13.57
2018-06-30T01:41:56.533Z,13.52
2018-06-30T01:42:56.968Z,13.63
2018-06-30T01:43:56.994Z,13.6
2018-06-30T01:44:57.016Z,13.55
2018-06-30T01:46:11.798Z,13.54
2018-06-30T01:46:57.058Z,13.49
2018-06-30T01:47:57.083Z,13.48
2018-06-30T01:48:57.108Z,13.48
2018-06-30T01:50:11.787Z,13.44
2018-06-30T01:50:57.148Z,13.46
2018-06-30T01:51:57.170Z,13.36
2018-06-30T01:52:57.194Z,13.39
2018-06-30T01:53:57.215Z,13.3
2018-06-30T01:54:57.243Z,13.32
2018-06-30T01:56:11.923Z,13.15
2018-06-30T01:56:57.276Z,13.19
2018-06-30T01:57:57.305Z,13.25
2018-06-30T01:58:57.327Z,13.19
2018-06-30T01:59:57.349Z,13.2
2018-06-30T02:00:57.370Z,13.15
2018-06-30T02:02:12.055Z,13.03
2018-06-30T02:02:57.414Z,13.04
2018-06-30T02:04:12.097Z,13.08
2018-06-30T02:04:57.201Z,13.03
2018-06-30T02:05:57.484Z,13
2018-06-30T02:06:57.242Z,12.95
2018-06-30T02:07:57.625Z,12.95
2018-06-30T02:08:57.548Z,12.92
2018-06-30T02:09:57.568Z,12.95
2018-06-30T02:10:57.589Z,12.9
2018-06-30T02:14:57.675Z,12.87
2018-06-30T02:15:57.707Z,12.87
2018-06-30T02:16:57.723Z,12.9
2018-06-30T02:17:57.741Z,12.83
2018-06-30T02:18:57.767Z,12.85
2018-06-30T02:20:12.448Z,12.86
2018-06-30T02:21:12.469Z,12.77
2018-06-30T02:22:12.490Z,12.75
2018-06-30T02:23:12.254Z,12.77
2018-06-30T02:23:57.872Z,12.77
2018-06-30T02:24:57.896Z,12.71
2018-06-30T02:25:57.918Z,12.7
2018-06-30T02:27:12.600Z,12.7
2018-06-30T02:28:57.983Z,12.65
2018-06-30T02:29:58.007Z,12.6
2018-06-30T02:30:58.026Z,12.67
2018-06-30T02:31:58.058Z,12.74
2018-06-30T02:32:57.821Z,12.67
2018-06-30T02:34:12.757Z,12.67
2018-06-30T02:34:57.859Z,12.68
2018-06-30T02:36:12.797Z,12.68
2018-06-30T02:36:58.159Z,12.53
2018-06-30T02:37:58.184Z,12.68
2018-06-30T02:38:57.732Z,12.67
2018-06-30T02:39:57.964Z,12.64
2018-06-30T02:40:58.302Z,12.57
2018-06-30T02:41:58.020Z,12.54
2018-06-30T02:42:58.038Z,12.5
2018-06-30T02:43:58.309Z,12.56
2018-06-30T02:44:58.334Z,12.67
2018-06-30T02:45:58.531Z,12.67
2018-06-30T02:46:58.382Z,12.5
2018-06-30T02:47:58.396Z,12.6
2018-06-30T02:48:58.422Z,12.67
2018-06-30T02:50:13.103Z,12.56
2018-06-30T02:50:58.465Z,12.5
2018-06-30T02:51:58.234Z,12.57
2018-06-30T02:53:12.910Z,12.47
2018-06-30T02:54:12.999Z,12.49
2018-06-30T02:54:58.546Z,12.56
2018-06-30T02:57:58.622Z,12.56
2018-06-30T02:59:13.296Z,12.52
2018-06-30T03:02:13.382Z,12.64
2018-06-30T03:02:58.721Z,12.53
2018-06-30T03:03:58.745Z,12.54
2018-06-30T03:04:58.763Z,12.54
2018-06-30T03:05:58.529Z,12.59
2018-06-30T03:06:58.808Z,12.53
2018-06-30T03:07:58.830Z,12.59
2018-06-30T03:08:58.864Z,12.53
2018-06-30T03:09:58.869Z,12.64
2018-06-30T03:10:59.016Z,12.56
2018-06-30T03:11:58.920Z,12.53
2018-06-30T03:12:58.679Z,12.64
2018-06-30T03:13:58.699Z,12.54
2018-06-30T03:15:13.657Z,12.54
2018-06-30T03:16:58.770Z,12.65
2018-06-30T03:17:59.046Z,12.53
2018-06-30T03:18:59.069Z,12.5
2018-06-30T03:19:59.086Z,12.53
2018-06-30T03:20:59.110Z,12.56
2018-06-30T03:21:59.132Z,12.42
2018-06-30T03:22:59.153Z,12.59
2018-06-30T03:23:59.272Z,12.59
2018-06-30T03:24:59.193Z,12.6
2018-06-30T03:25:59.216Z,12.56
2018-06-30T03:27:59.000Z,12.52
2018-06-30T03:28:59.279Z,12.57
2018-06-30T03:29:59.307Z,12.56
2018-06-30T03:31:13.985Z,12.52
2018-06-30T03:31:59.346Z,12.52
2018-06-30T03:32:59.367Z,12.56
2018-06-30T03:33:59.129Z,12.57
2018-06-30T03:34:59.412Z,12.5
2018-06-30T03:35:59.431Z,12.54
2018-06-30T03:36:59.452Z,12.56
2018-06-30T03:37:59.472Z,12.59
2018-06-30T03:39:14.158Z,12.52
2018-06-30T03:39:59.001Z,12.49
2018-06-30T03:40:59.280Z,12.56
2018-06-30T03:41:59.567Z,12.56
2018-06-30T03:42:59.583Z,12.67
2018-06-30T03:43:59.604Z,12.6
2018-06-30T03:44:59.371Z,12.68
2018-06-30T03:45:59.651Z,12.71
2018-06-30T03:47:14.070Z,12.64
2018-06-30T03:47:59.694Z,12.64
2018-06-30T03:48:59.717Z,12.67
2018-06-30T03:50:59.755Z,12.7
2018-06-30T03:51:59.781Z,12.7
2018-06-30T03:52:59.799Z,12.77
2018-06-30T03:53:59.566Z,12.72
2018-06-30T03:54:59.583Z,12.7
2018-06-30T03:55:59.870Z,12.68
2018-06-30T03:56:59.627Z,12.79
2018-06-30T03:57:59.908Z,12.75
2018-06-30T03:58:59.929Z,12.79
2018-06-30T03:59:59.952Z,12.85
2018-06-30T04:00:59.972Z,12.96
2018-06-30T04:03:00.017Z,13.03
2018-06-30T04:04:00.087Z,13.07
2018-06-30T04:04:59.804Z,13.14
2018-06-30T04:06:00.082Z,13.14
2018-06-30T04:07:00.110Z,13.23
2018-06-30T04:08:00.153Z,13.2
2018-06-30T04:09:00.144Z,13.19
2018-06-30T04:09:59.913Z,13.17
2018-06-30T04:11:00.194Z,13.15
2018-06-30T04:11:59.953Z,13.22
2018-06-30T04:13:00.232Z,13.41
2018-06-30T04:14:00.258Z,13.91
2018-06-30T04:15:00.043Z,14.6
2018-06-30T04:16:00.301Z,15.64
2018-06-30T04:17:00.327Z,16.83
2018-06-30T04:18:00.086Z,17.86
2018-06-30T04:19:00.365Z,18.62
2018-06-30T04:20:00.388Z,19.23
2018-06-30T04:21:00.421Z,20.17
2018-06-30T04:22:00.555Z,20.82
2018-06-30T04:24:00.232Z,21.99
2018-06-30T04:25:00.526Z,22.12
2018-06-30T04:26:00.544Z,22.1
2018-06-30T04:27:00.567Z,22.6
2018-06-30T04:28:00.592Z,22.85
2018-06-30T04:29:00.618Z,23.38
2018-06-30T04:30:00.386Z,23.4
2018-06-30T04:31:00.668Z,23.65
2018-06-30T04:32:00.701Z,23.36
2018-06-30T04:33:00.723Z,22.7
2018-06-30T04:34:15.417Z,22.82
2018-06-30T04:35:00.526Z,22.97
2018-06-30T04:36:00.808Z,22.95
2018-06-30T04:37:00.850Z,23.04
2018-06-30T04:38:00.864Z,23.55
2018-06-30T04:39:00.897Z,24.06
2018-06-30T04:40:00.928Z,24.1
2018-06-30T04:41:00.951Z,24.13
2018-06-30T04:42:00.983Z,24.47
2018-06-30T04:43:00.494Z,24.64
2018-06-30T04:44:01.040Z,24.67
2018-06-30T04:45:15.551Z,25.09
2018-06-30T04:46:01.096Z,25.38
2018-06-30T04:47:00.875Z,25.94
2018-06-30T04:48:01.196Z,26.36
2018-06-30T04:49:01.208Z,26.6
2018-06-30T04:50:15.884Z,26.73
2018-06-30T04:51:01.371Z,26.84
2018-06-30T04:52:01.283Z,26.3
2018-06-30T04:53:01.052Z,26.66
2018-06-30T04:54:01.341Z,26.32
2018-06-30T04:55:01.114Z,26.33
2018-06-30T04:56:01.404Z,26.32
2018-06-30T04:57:01.180Z,25.88
2018-06-30T04:58:01.475Z,26.65
2018-06-30T04:59:01.498Z,25.5
2018-06-30T05:00:01.530Z,25.42
2018-06-30T05:01:01.559Z,25.33
2018-06-30T05:02:01.601Z,25.42
2018-06-30T05:03:01.379Z,25.75
2018-06-30T05:04:01.658Z,26.6
2018-06-30T05:05:01.693Z,27.27
2018-06-30T05:06:16.389Z,27.21
2018-06-30T05:07:01.765Z,27.04
2018-06-30T05:08:01.790Z,27.7
2018-06-30T05:09:01.825Z,27.54
2018-06-30T05:10:01.598Z,28.21
2018-06-30T05:11:01.892Z,28.51
2018-06-30T05:12:01.924Z,29.09
2018-06-30T05:13:01.701Z,29.3
2018-06-30T05:14:01.990Z,29.31
2018-06-30T05:15:02.045Z,28.76
2018-06-30T05:16:02.059Z,28.67
2018-06-30T05:17:16.495Z,28.77
2018-06-30T05:18:16.783Z,28.56
2018-06-30T05:19:02.155Z,29.08
2018-06-30T05:20:02.191Z,28.64
2018-06-30T05:21:01.963Z,28.98
2018-06-30T05:22:16.921Z,29.71
2018-06-30T05:23:02.294Z,29.87
2018-06-30T05:24:02.326Z,30.08
2018-06-30T05:26:02.654Z,30.31
2018-06-30T05:27:02.437Z,30.23
2018-06-30T05:28:02.468Z,29.55
2018-06-30T05:29:02.242Z,29.53
2018-06-30T05:30:02.384Z,29.26
2018-06-30T05:31:02.569Z,28.51
2018-06-30T05:32:02.602Z,28.86
2018-06-30T05:33:02.378Z,29.3
2018-06-30T05:34:02.420Z,27.96
2018-06-30T05:35:02.707Z,26.85
2018-06-30T05:36:02.484Z,27.43
2018-06-30T05:37:17.183Z,28
2018-06-30T05:38:02.811Z,28
2018-06-30T05:39:02.851Z,27.28
2018-06-30T05:40:02.881Z,27.51
2018-06-30T05:41:02.697Z,27.72
2018-06-30T05:42:02.958Z,27.72
2018-06-30T05:43:02.996Z,28.34
2018-06-30T05:44:02.764Z,29.06
2018-06-30T05:45:03.057Z,29.53
2018-06-30T05:46:17.756Z,30.26
2018-06-30T05:47:02.870Z,30.32
2018-06-30T05:48:02.912Z,29.87
2018-06-30T05:49:03.204Z,29.83
2018-06-30T05:50:02.972Z,29.82
2018-06-30T05:51:03.270Z,29.63
2018-06-30T05:52:03.309Z,30.16
2018-06-30T05:53:03.341Z,30.23
2018-06-30T05:54:03.376Z,30.7
2018-06-30T05:55:03.423Z,30
2018-06-30T05:56:03.450Z,28.74
2018-06-30T05:57:02.969Z,27.79
2018-06-30T05:58:03.517Z,28.37
2018-06-30T05:59:03.556Z,28.3
2018-06-30T06:00:03.592Z,28.76
2018-06-30T06:01:03.625Z,29.43
2018-06-30T06:02:03.658Z,29.6
2018-06-30T06:04:03.749Z,30.75
2018-06-30T06:05:03.510Z,30.94
2018-06-30T06:06:03.829Z,31.02
2018-06-30T06:07:03.840Z,30.37
2018-06-30T06:08:03.873Z,29.51
2018-06-30T06:09:18.573Z,29.68
2018-06-30T06:10:03.882Z,30.11
2018-06-30T06:13:04.052Z,30.15
2018-06-30T06:14:18.757Z,30.35
2018-06-30T06:15:03.886Z,30.17
2018-06-30T06:16:04.174Z,30.47
2018-06-30T06:17:03.944Z,31.01
2018-06-30T06:18:03.979Z,31.78
2018-06-30T06:19:04.280Z,32.04
2018-06-30T06:20:04.119Z,31.85
2018-06-30T06:21:04.137Z,30.99
2018-06-30T06:23:04.259Z,31.43
2018-06-30T06:24:04.193Z,31.32
2018-06-30T06:25:19.172Z,31.06
2018-06-30T06:26:04.808Z,31.07
2018-06-30T06:27:04.577Z,30.29
2018-06-30T06:28:04.600Z,29.28
2018-06-30T06:29:04.635Z,29.41
2018-06-30T06:30:04.431Z,30.15
2018-06-30T06:31:19.382Z,30.6
2018-06-30T06:32:04.495Z,30.65
2018-06-30T06:33:04.533Z,31.34
2018-06-30T06:34:04.822Z,30.72
2018-06-30T06:35:04.859Z,29.85
2018-06-30T06:36:04.634Z,30.19
2018-06-30T06:37:04.669Z,30.15
2018-06-30T06:38:04.971Z,29.51
2018-06-30T06:39:04.743Z,28.54
2018-06-30T06:40:05.043Z,28.73
2018-06-30T06:41:19.738Z,29.63
2018-06-30T06:42:05.111Z,29.3
2018-06-30T06:43:04.631Z,28.78
2018-06-30T06:44:05.285Z,27.99
2018-06-30T06:45:05.229Z,28.18
2018-06-30T06:46:04.995Z,29.09
2018-06-30T06:47:05.291Z,29.37
2018-06-30T06:48:05.328Z,28.59
2018-06-30T06:49:05.364Z,28.81
2018-06-30T06:50:05.402Z,28.78
2018-06-30T06:51:05.267Z,28.96
2018-06-30T06:52:19.879Z,29.73
2018-06-30T06:53:05.247Z,30.13
2018-06-30T06:54:05.548Z,30.07
2018-06-30T06:56:05.102Z,30.16
2018-06-30T06:57:20.319Z,30.99
2018-06-30T06:58:05.693Z,31.35
2018-06-30T06:59:05.730Z,31.39
2018-06-30T07:00:05.508Z,30.55
2018-06-30T07:01:05.544Z,30.27
2018-06-30T07:02:05.587Z,30.08
2018-06-30T07:03:06.024Z,29.27
2018-06-30T07:04:05.918Z,29.19
2018-06-30T07:05:05.689Z,28.77
2018-06-30T07:06:05.734Z,28.44
2018-06-30T07:07:05.760Z,29.14
2018-06-30T07:08:06.054Z,29.3
2018-06-30T07:09:05.833Z,29.53
2018-06-30T07:10:06.134Z,29.83
2018-06-30T07:11:05.907Z,30.07
2018-06-30T07:12:20.868Z,30.23
2018-06-30T07:13:05.983Z,30.42
2018-06-30T07:14:06.275Z,30.47
2018-06-30T07:15:06.052Z,30.73
2018-06-30T07:16:06.352Z,30.49
2018-06-30T07:17:06.125Z,29.04
2018-06-30T07:18:06.161Z,29.41
2018-06-30T07:19:21.233Z,29.33
2018-06-30T07:20:06.237Z,29.27
2018-06-30T07:21:06.011Z,29.02
2018-06-30T07:22:20.971Z,28.77
2018-06-30T07:23:06.084Z,29.06
2018-06-30T07:24:06.387Z,29.45
2018-06-30T07:25:06.157Z,29.57
2018-06-30T07:27:06.519Z,30.15
2018-06-30T07:28:06.524Z,29.74
2018-06-30T07:30:07.058Z,29.41
2018-06-30T07:31:06.971Z,29.57
2018-06-30T07:32:06.668Z,30.1
2018-06-30T07:34:07.002Z,30.13
2018-06-30T07:35:06.776Z,29.85
2018-06-30T07:36:07.075Z,30.04
2018-06-30T07:37:07.107Z,29.74
2018-06-30T07:38:06.887Z,29.86
2018-06-30T07:39:06.928Z,29.51
2018-06-30T07:40:07.214Z,29.21
2018-06-30T07:41:07.249Z,28.41
2018-06-30T07:42:07.026Z,28.59
2018-06-30T07:43:07.322Z,29.19
2018-06-30T07:44:22.021Z,30.11
2018-06-30T07:45:06.874Z,30.43
2018-06-30T07:46:22.102Z,29.85
2018-06-30T07:48:06.984Z,29.24
2018-06-30T07:49:07.280Z,28.9
2018-06-30T07:50:07.804Z,29.55
2018-06-30T07:51:07.093Z,30.01
2018-06-30T07:52:07.647Z,30.22
2018-06-30T07:53:22.342Z,30.32
2018-06-30T07:54:22.377Z,30.1
2018-06-30T07:55:07.233Z,30.61
2018-06-30T07:56:07.947Z,30
2018-06-30T07:57:07.827Z,29.67
2018-06-30T07:58:07.596Z,29.12
2018-06-30T07:59:07.892Z,29.82
2018-06-30T08:00:22.334Z,30.02
2018-06-30T08:01:07.961Z,30.31
2018-06-30T08:02:08.204Z,30.58
2018-06-30T08:03:07.617Z,30.62
2018-06-30T08:04:07.813Z,29.89
2018-06-30T08:05:22.774Z,27.72
2018-06-30T08:06:08.141Z,27.51
2018-06-30T08:07:08.185Z,27.19
2018-06-30T08:08:07.960Z,27.74
2018-06-30T08:09:07.990Z,27.85
2018-06-30T08:10:08.290Z,28.11
2018-06-30T08:11:08.319Z,28.71
2018-06-30T08:12:08.123Z,28.96
2018-06-30T08:13:08.396Z,29.34
2018-06-30T08:14:08.425Z,29.71
2018-06-30T08:15:08.463Z,30.16
2018-06-30T08:16:23.157Z,29.57
2018-06-30T08:17:08.531Z,30.08
2018-06-30T08:19:08.602Z,30.35
2018-06-30T08:20:08.636Z,30.15
2018-06-30T08:21:08.435Z,30.55
2018-06-30T08:22:08.445Z,30.86
2018-06-30T08:23:08.488Z,30.94
2018-06-30T08:24:23.439Z,30.19
2018-06-30T08:25:08.551Z,30.05
2018-06-30T08:26:08.584Z,30.53
2018-06-30T08:27:08.879Z,30
2018-06-30T08:28:08.913Z,28.7
2018-06-30T08:29:08.689Z,28.3
2018-06-30T08:30:08.723Z,27.7
2018-06-30T08:31:08.759Z,27.39
2018-06-30T08:32:23.712Z,26.8
2018-06-30T08:33:09.093Z,27.04
2018-06-30T08:34:08.860Z,28.04
2018-06-30T08:35:09.155Z,28.07
2018-06-30T08:36:09.186Z,27.88
2018-06-30T08:37:09.220Z,28.37
2018-06-30T08:38:09.252Z,28.29
2018-06-30T08:39:09.293Z,28.34
2018-06-30T08:40:23.986Z,26.75
2018-06-30T08:41:24.020Z,26.55
2018-06-30T08:42:09.136Z,25.9
2018-06-30T08:43:09.422Z,25.38
2018-06-30T08:44:08.940Z,25.52
2018-06-30T08:45:09.502Z,25.79
2018-06-30T08:46:09.526Z,26.07
2018-06-30T08:47:24.221Z,26.87
2018-06-30T08:48:09.336Z,28
2018-06-30T08:49:09.624Z,28.98
2018-06-30T08:50:09.657Z,29.53
2018-06-30T08:51:09.753Z,29.53
2018-06-30T08:52:09.722Z,28.8
2018-06-30T08:53:09.753Z,27.59
2018-06-30T08:54:09.629Z,26.62
2018-06-30T08:55:09.833Z,26.2
2018-06-30T08:56:09.594Z,26.69
2018-06-30T08:57:09.961Z,27.7
2018-06-30T08:58:09.663Z,29.27
2018-06-30T08:59:09.438Z,30.11
2018-06-30T09:00:09.469Z,30.61
2018-06-30T09:01:10.026Z,29.71
2018-06-30T09:02:10.057Z,29.23
2018-06-30T09:03:10.090Z,28.83
2018-06-30T09:04:10.145Z,28.11
2018-06-30T09:05:10.153Z,27.19
2018-06-30T09:06:10.195Z,26.55
2018-06-30T09:07:10.316Z,26.3
2018-06-30T09:08:09.991Z,25.62
2018-06-30T09:09:10.030Z,25.1
2018-06-30T09:10:10.313Z,25.85
2018-06-30T09:11:10.357Z,27.22
2018-06-30T09:12:10.143Z,28.56
2018-06-30T09:13:24.813Z,28.74
2018-06-30T09:14:10.180Z,28.85
2018-06-30T09:15:10.216Z,28.49
2018-06-30T09:16:10.651Z,27.75
2018-06-30T09:17:10.536Z,27.39
2018-06-30T09:18:10.567Z,27.28
2018-06-30T09:19:25.263Z,26.81
2018-06-30T09:20:10.651Z,26.95
2018-06-30T09:21:10.407Z,27.41
2018-06-30T09:22:10.702Z,27.87
2018-06-30T09:23:10.730Z,27.06
2018-06-30T09:24:10.919Z,26.32
2018-06-30T09:25:10.800Z,26.87
2018-06-30T09:26:10.823Z,27.78
2018-06-30T09:27:10.874Z,27.66
2018-06-30T09:28:10.627Z,25.94
2018-06-30T09:29:25.577Z,26.13
2018-06-30T09:30:10.950Z,26.17
2018-06-30T09:31:10.978Z,26.77
2018-06-30T09:32:11.007Z,27.1
2018-06-30T09:33:11.038Z,27.4
2018-06-30T09:34:11.081Z,27.82
2018-06-30T09:35:25.765Z,28.14
2018-06-30T09:37:11.175Z,29.05
2018-06-30T09:39:11.225Z,29.78
2018-06-30T09:41:11.288Z,29.57
2018-06-30T09:42:11.321Z,28.9
2018-06-30T09:43:11.351Z,28.52
2018-06-30T09:44:11.127Z,28.22
2018-06-30T09:45:11.416Z,27.74
2018-06-30T09:46:11.187Z,27.02
2018-06-30T09:47:11.486Z,27.17
2018-06-30T09:48:11.249Z,27.32
2018-06-30T09:49:11.545Z,27.43
2018-06-30T09:50:11.055Z,26.89
2018-06-30T09:51:26.262Z,26.66
2018-06-30T09:52:11.374Z,26.6
2018-06-30T09:53:11.403Z,26.85
2018-06-30T09:54:11.700Z,26.55
2018-06-30T09:55:11.731Z,26.51
2018-06-30T09:56:11.237Z,26.48
2018-06-30T09:57:11.833Z,26.55
2018-06-30T09:58:11.558Z,26.33
2018-06-30T09:59:11.846Z,26.02
2018-06-30T10:01:11.921Z,27.6
2018-06-30T10:02:26.342Z,28.37
2018-06-30T10:03:12.003Z,28.76
2018-06-30T10:04:12.000Z,29.52
2018-06-30T10:05:12.031Z,29.92
2018-06-30T10:06:11.543Z,30.51
2018-06-30T10:07:26.751Z,30.01
2018-06-30T10:08:11.861Z,29.49
2018-06-30T10:09:11.928Z,28.76
2018-06-30T10:10:11.666Z,28.33
2018-06-30T10:11:11.953Z,28.24
2018-06-30T10:12:12.244Z,27.65
2018-06-30T10:13:12.045Z,26.91
2018-06-30T10:14:12.307Z,26.33
2018-06-30T10:15:26.998Z,26.18
2018-06-30T10:16:12.363Z,26.47
2018-06-30T10:17:12.395Z,27.06
2018-06-30T10:18:12.432Z,27.93
2018-06-30T10:19:12.711Z,28
2018-06-30T10:21:12.636Z,27.67
2018-06-30T10:22:27.211Z,26.3
2018-06-30T10:24:12.610Z,25.23
2018-06-30T10:25:12.638Z,24.77
2018-06-30T10:26:27.335Z,25.33
2018-06-30T10:27:12.701Z,26.05
2018-06-30T10:28:12.469Z,27.21
2018-06-30T10:29:12.505Z,27.65
2018-06-30T10:30:12.795Z,27.88
2018-06-30T10:31:12.913Z,27.07
2018-06-30T10:32:27.251Z,26.97
2018-06-30T10:33:12.880Z,27.12
2018-06-30T10:34:12.919Z,27.29
2018-06-30T10:35:12.933Z,27.69
2018-06-30T10:36:12.971Z,27.36
2018-06-30T10:38:13.026Z,26.2
2018-06-30T10:41:13.116Z,25.42
2018-06-30T10:42:12.938Z,25.58
2018-06-30T10:43:12.916Z,25.76
2018-06-30T10:44:13.208Z,25.28
2018-06-30T10:45:12.981Z,25.62
2018-06-30T10:46:13.362Z,25.82
2018-06-30T10:47:13.300Z,25.24
2018-06-30T10:48:13.065Z,25.28
2018-06-30T10:49:28.012Z,25.45
2018-06-30T10:50:13.382Z,25.61
2018-06-30T10:51:13.155Z,25.32
2018-06-30T10:52:13.182Z,25.2
2018-06-30T10:53:13.212Z,25.23
2018-06-30T10:54:28.165Z,24.55
2018-06-30T10:55:13.530Z,24.62
2018-06-30T10:56:13.300Z,24.81
2018-06-30T10:57:13.588Z,24.73
2018-06-30T10:58:13.361Z,24.65
2018-06-30T10:59:13.643Z,24.57
2018-06-30T11:00:13.852Z,24.39
2018-06-30T11:01:28.368Z,25.05
2018-06-30T11:02:13.472Z,25.24
2018-06-30T11:03:13.503Z,25.47
2018-06-30T11:04:13.679Z,25.45
2018-06-30T11:05:14.012Z,25.5
2018-06-30T11:06:13.849Z,25.36
2018-06-30T11:07:13.879Z,25.23
2018-06-30T11:08:13.648Z,24.77
2018-06-30T11:09:13.678Z,24.13
2018-06-30T11:10:28.626Z,23.79
2018-06-30T11:11:13.990Z,23.57
2018-06-30T11:13:14.149Z,23.31
2018-06-30T11:14:14.077Z,23.19
2018-06-30T11:15:14.107Z,23.31
2018-06-30T11:16:14.130Z,23.31
2018-06-30T11:17:14.165Z,23.31
2018-06-30T11:18:14.197Z,23.66
2018-06-30T11:19:14.226Z,23.53
2018-06-30T11:20:14.610Z,23.53
2018-06-30T11:22:14.044Z,23.15
2018-06-30T11:23:14.332Z,23.19
2018-06-30T11:24:14.405Z,23.4
2018-06-30T11:25:14.127Z,23.68
2018-06-30T11:26:29.075Z,23.83
2018-06-30T11:27:14.438Z,24.24
2018-06-30T11:28:14.471Z,24.02
2018-06-30T11:29:14.495Z,24.06
2018-06-30T11:30:14.525Z,24.27
2018-06-30T11:31:14.557Z,24.22
2018-06-30T11:32:14.576Z,24.65
2018-06-30T11:33:14.612Z,24.9
2018-06-30T11:34:14.633Z,25.17
2018-06-30T11:35:14.667Z,25.21
2018-06-30T11:36:29.096Z,25.06
2018-06-30T11:37:14.822Z,25.23
2018-06-30T11:38:14.744Z,25.42
2018-06-30T11:39:14.777Z,25
2018-06-30T11:40:14.802Z,23.93
2018-06-30T11:41:14.832Z,23.78
2018-06-30T11:42:29.518Z,23.78
2018-06-30T11:43:14.884Z,23.87
2018-06-30T11:44:14.914Z,23.95
2018-06-30T11:45:14.941Z,23.76
2018-06-30T11:46:14.969Z,23.73
2018-06-30T11:47:14.742Z,23.58
2018-06-30T11:48:14.764Z,23.46
2018-06-30T11:49:14.792Z,23.42
2018-06-30T11:50:15.120Z,23.58
2018-06-30T11:51:14.848Z,23.5
2018-06-30T11:52:15.135Z,23.7
2018-06-30T11:53:15.162Z,23.66
2018-06-30T11:54:14.930Z,24.06
2018-06-30T11:55:15.224Z,24.43
2018-06-30T11:56:14.985Z,24.1
2018-06-30T11:57:29.935Z,24.45
2018-06-30T11:58:15.302Z,24.53
2018-06-30T11:59:15.324Z,24.93
2018-06-30T12:01:15.384Z,24.61
2018-06-30T12:02:15.501Z,24.87
2018-06-30T12:03:15.438Z,25.15
2018-06-30T12:04:30.130Z,25.1
2018-06-30T12:05:15.236Z,25.02
2018-06-30T12:06:15.005Z,24.68
2018-06-30T12:07:15.547Z,24.47
2018-06-30T12:08:15.576Z,24.16
2018-06-30T12:09:15.432Z,24.02
2018-06-30T12:10:15.629Z,23.9
2018-06-30T12:11:15.656Z,24.09
2018-06-30T12:12:15.691Z,24.15
2018-06-30T12:13:15.458Z,23.85
2018-06-30T12:14:15.483Z,23.65
2018-06-30T12:15:15.767Z,23.68
2018-06-30T12:17:15.820Z,23.6
2018-06-30T12:18:15.847Z,23.43
2018-06-30T12:19:15.874Z,23.39
2018-06-30T12:20:15.902Z,23.35
2018-06-30T12:21:15.671Z,23.01
2018-06-30T12:22:15.700Z,23.05
2018-06-30T12:23:15.985Z,23.09
2018-06-30T12:24:16.019Z,23
2018-06-30T12:25:16.046Z,23.43
2018-06-30T12:26:16.077Z,23.72
2018-06-30T12:27:16.093Z,23.69
2018-06-30T12:28:16.127Z,23.85
2018-06-30T12:29:30.836Z,23.84
2018-06-30T12:30:16.220Z,23.8
2018-06-30T12:31:15.944Z,23.68
2018-06-30T12:32:16.080Z,23.83
2018-06-30T12:34:16.284Z,24.05
2018-06-30T12:35:16.311Z,24.18
2018-06-30T12:36:16.341Z,23.78
2018-06-30T12:37:16.366Z,23.54
2018-06-30T12:38:16.398Z,23.51
2018-06-30T12:39:15.907Z,23.83
2018-06-30T12:40:16.448Z,24.12
2018-06-30T12:41:16.474Z,24.46
2018-06-30T12:42:16.503Z,24.15
2018-06-30T12:43:16.269Z,23.88
2018-06-30T12:44:16.559Z,23.88
2018-06-30T12:45:31.243Z,24.32
2018-06-30T12:46:16.365Z,24.45
2018-06-30T12:47:16.380Z,24.57
2018-06-30T12:48:16.663Z,24.58
2018-06-30T12:49:16.692Z,24.27
2018-06-30T12:50:16.721Z,23.75
2018-06-30T12:51:16.745Z,23.35
2018-06-30T12:52:31.436Z,23.63
2018-06-30T12:53:16.546Z,23.6
2018-06-30T12:55:16.857Z,22.98
2018-06-30T12:56:31.541Z,22.88
2018-06-30T12:57:16.907Z,22.52
2018-06-30T12:58:16.932Z,22.62
2018-06-30T12:59:16.959Z,22.39
2018-06-30T13:00:17.087Z,22.35
2018-06-30T13:01:31.676Z,22.4
2018-06-30T13:02:16.783Z,22.54
2018-06-30T13:03:17.076Z,22.58
2018-06-30T13:04:16.938Z,22.72
2018-06-30T13:05:17.124Z,22.6
2018-06-30T13:06:17.150Z,22.62
2018-06-30T13:07:16.918Z,22.46
2018-06-30T13:08:17.198Z,22.4
2018-06-30T13:09:17.403Z,22.17
2018-06-30T13:10:17.253Z,22.09
2018-06-30T13:11:17.281Z,22.14
2018-06-30T13:12:17.307Z,22.24
2018-06-30T13:13:17.331Z,22.28
2018-06-30T13:14:17.358Z,22.12
2018-06-30T13:15:17.129Z,22.09
2018-06-30T13:16:17.413Z,22.33
2018-06-30T13:17:32.111Z,22.55
2018-06-30T13:18:17.466Z,22.65
2018-06-30T13:19:17.495Z,22.73
2018-06-30T13:20:17.522Z,22.73
2018-06-30T13:21:17.543Z,22.95
2018-06-30T13:22:17.569Z,22.95
2018-06-30T13:24:17.628Z,23.2
2018-06-30T13:25:17.136Z,23.46
2018-06-30T13:26:17.686Z,23.68
2018-06-30T13:27:17.702Z,23.85
2018-06-30T13:28:17.725Z,24.35
2018-06-30T13:29:17.766Z,24.39
2018-06-30T13:30:17.779Z,24.65
2018-06-30T13:31:17.554Z,25.13
2018-06-30T13:32:32.498Z,25.35
2018-06-30T13:33:17.602Z,25.06
2018-06-30T13:35:17.917Z,24.68
2018-06-30T13:36:17.942Z,23.65
2018-06-30T13:37:17.969Z,23.28
2018-06-30T13:38:17.993Z,23.38
2018-06-30T13:39:18.023Z,23.01
2018-06-30T13:40:17.795Z,22.67
2018-06-30T13:41:32.737Z,22.49
2018-06-30T13:42:17.946Z,22.61
2018-06-30T13:43:17.958Z,22.51